Time;durP1;ratioP1;P1;durP2;ratioP2;P2;SDS_P1;SDS_P2;PMS_P1;PMS_P2;Temp;Humidity;BMP_temperature;BMP_pressure;BME280_temperature;BME280_humidity;BME280_pressure;Samples;Min_cycle;Max_cycle;Signal;HPM_P1;HPM_P2
2023/08/08 00:00:46;;;;;;;5.43;1.30;;;11.70;45.80;;;;;;5035202;28;46443;-68
2023/08/08 00:03:12;;;;;;;2.60;1.40;;;11.70;46.20;;;;;;5034813;28;47365;-68
2023/08/08 00:05:38;;;;;;;3.93;1.47;;;11.60;46.30;;;;;;5038149;28;45896;-68
2023/08/08 00:08:04;;;;;;;4.50;1.57;;;11.60;46.50;;;;;;5041766;28;46676;-68
2023/08/08 00:10:29;;;;;;;7.80;1.70;;;11.50;46.50;;;;;;5036520;28;46673;-68
2023/08/08 00:12:55;;;;;;;4.17;1.53;;;11.50;46.60;;;;;;5038921;28;46525;-68
2023/08/08 00:15:21;;;;;;;3.50;1.53;;;11.50;46.90;;;;;;5037371;28;45864;-68
2023/08/08 00:17:46;;;;;;;2.87;1.53;;;11.40;46.90;;;;;;5037092;28;47417;-67
2023/08/08 00:20:13;;;;;;;3.50;1.67;;;11.30;47.20;;;;;;5040876;28;46487;-68
2023/08/08 00:22:39;;;;;;;2.67;1.20;;;11.20;47.30;;;;;;5037283;28;45877;-68
2023/08/08 00:25:05;;;;;;;3.50;1.33;;;11.10;47.30;;;;;;5039618;28;46574;-68
2023/08/08 00:27:31;;;;;;;3.00;1.50;;;11.10;47.60;;;;;;5021774;28;46539;-69
2023/08/08 00:29:56;;;;;;;3.20;1.27;;;11.10;47.90;;;;;;5034853;28;46602;-68
2023/08/08 00:32:22;;;;;;;2.90;1.30;;;11.00;48.00;;;;;;5043585;28;46756;-68
2023/08/08 00:34:48;;;;;;;3.40;1.53;;;10.90;48.00;;;;;;5038266;28;46661;-68
2023/08/08 00:37:14;;;;;;;2.83;1.50;;;10.90;48.10;;;;;;5037768;28;46419;-68
2023/08/08 00:39:42;;;;;;;5.00;1.60;;;10.90;48.00;;;;;;5034179;28;46552;-68
2023/08/08 00:42:07;;;;;;;3.20;1.47;;;10.90;48.10;;;;;;5025773;28;46427;-68
2023/08/08 00:44:33;;;;;;;3.07;1.20;;;10.80;48.00;;;;;;5038419;28;45881;-68
2023/08/08 00:46:59;;;;;;;3.17;1.60;;;10.70;48.00;;;;;;5033718;28;46455;-68
2023/08/08 00:49:24;;;;;;;5.00;1.80;;;10.70;48.10;;;;;;5038735;28;46515;-68
2023/08/08 00:51:50;;;;;;;3.60;1.37;;;10.70;48.30;;;;;;5040095;28;46423;-68
2023/08/08 00:54:16;;;;;;;3.30;1.57;;;10.60;48.40;;;;;;5037488;28;46959;-68
2023/08/08 00:56:41;;;;;;;3.90;1.60;;;10.50;48.50;;;;;;5040152;28;47365;-68
2023/08/08 00:59:10;;;;;;;3.17;1.43;;;10.50;48.80;;;;;;5038926;28;46447;-68
2023/08/08 01:01:36;;;;;;;4.73;1.70;;;10.40;49.00;;;;;;5036082;28;45893;-68
2023/08/08 01:04:06;;;;;;;2.90;1.30;;;10.30;49.10;;;;;;5034707;28;46321;-68
2023/08/08 01:07:05;;;;;;;4.20;1.67;;;10.30;49.30;;;;;;5036525;28;46705;-68
2023/08/08 01:09:36;;;;;;;3.40;1.47;;;10.20;49.60;;;;;;5040737;28;46718;-68
2023/08/08 01:12:03;;;;;;;3.37;1.63;;;10.20;49.50;;;;;;5035735;28;46385;-68
2023/08/08 01:14:32;;;;;;;3.40;1.60;;;10.10;49.70;;;;;;5035981;28;45892;-68
2023/08/08 01:16:58;;;;;;;5.13;1.63;;;10.10;49.80;;;;;;5039936;28;47352;-68
2023/08/08 01:19:31;;;;;;;3.00;1.37;;;10.10;49.90;;;;;;5040096;28;45743;-68
2023/08/08 01:22:05;;;;;;;3.00;1.80;;;10.00;50.90;;;;;;5036845;28;46396;-68
2023/08/08 01:24:32;;;;;;;3.20;1.40;;;10.00;50.00;;;;;;5041555;28;46448;-68
2023/08/08 01:26:59;;;;;;;4.80;2.00;;;9.90;50.90;;;;;;5036770;28;46358;-68
2023/08/08 01:29:26;;;;;;;3.60;1.73;;;9.90;51.10;;;;;;5035213;28;46483;-69
2023/08/08 01:31:52;;;;;;;3.87;1.70;;;9.80;51.20;;;;;;5035473;28;46376;-68
2023/08/08 01:34:18;;;;;;;3.90;1.70;;;9.80;51.50;;;;;;5038174;28;46515;-68
2023/08/08 01:36:59;;;;;;;5.93;1.80;;;9.80;51.30;;;;;;5039431;28;47124;-68
2023/08/08 01:39:30;;;;;;;4.13;1.70;;;9.80;51.60;;;;;;5040541;28;46349;-68
2023/08/08 01:41:58;;;;;;;4.00;1.57;;;9.80;51.70;;;;;;5035779;28;46493;-68
2023/08/08 01:44:25;;;;;;;3.63;1.70;;;9.70;52.00;;;;;;5034716;28;46477;-68
2023/08/08 01:46:51;;;;;;;3.40;1.50;;;9.70;52.20;;;;;;5032352;28;47131;-68
2023/08/08 01:49:17;;;;;;;2.73;1.50;;;9.70;52.30;;;;;;5037075;28;46369;-68
2023/08/08 01:51:42;;;;;;;4.40;1.57;;;9.70;52.40;;;;;;5037012;28;46743;-68
2023/08/08 01:54:08;;;;;;;3.40;1.77;;;9.70;52.40;;;;;;5030943;28;46828;-68
2023/08/08 01:56:34;;;;;;;3.47;1.90;;;9.70;52.40;;;;;;5032327;28;46395;-68
2023/08/08 01:59:00;;;;;;;2.60;1.30;;;9.70;52.40;;;;;;5032328;28;46400;-67
2023/08/08 02:01:25;;;;;;;5.07;1.60;;;9.70;52.40;;;;;;5035705;28;46544;-68
2023/08/08 02:03:51;;;;;;;3.40;1.97;;;9.70;52.40;;;;;;5037837;28;46706;-68
2023/08/08 02:06:16;;;;;;;7.90;1.80;;;9.70;52.40;;;;;;5034770;28;47086;-67
2023/08/08 02:08:42;;;;;;;4.53;1.67;;;9.70;52.40;;;;;;5031985;28;46352;-70
2023/08/08 02:11:08;;;;;;;6.80;1.60;;;9.80;52.40;;;;;;5040372;28;46762;-68
2023/08/08 02:13:33;;;;;;;11.30;1.50;;;9.80;52.40;;;;;;5040091;28;46641;-67
2023/08/08 02:15:59;;;;;;;3.70;1.63;;;9.90;52.00;;;;;;5038096;28;46716;-68
2023/08/08 02:18:24;;;;;;;3.23;1.80;;;10.00;50.50;;;;;;5037517;28;45975;-68
2023/08/08 02:20:50;;;;;;;2.77;1.33;;;10.10;50.00;;;;;;5042514;28;46383;-68
2023/08/08 02:23:15;;;;;;;6.43;1.60;;;10.30;49.70;;;;;;5039783;28;46675;-68
2023/08/08 02:25:41;;;;;;;3.37;1.60;;;10.40;49.30;;;;;;5029407;28;46513;-68
2023/08/08 02:28:07;;;;;;;3.30;2.07;;;10.50;49.10;;;;;;5037136;28;46477;-68
2023/08/08 02:30:32;;;;;;;2.70;1.60;;;10.60;48.90;;;;;;5041847;28;46462;-67
2023/08/08 02:32:58;;;;;;;3.03;1.90;;;10.70;48.60;;;;;;5039887;28;46599;-68
2023/08/08 02:35:23;;;;;;;3.70;1.70;;;10.80;48.40;;;;;;5041727;28;46780;-68
2023/08/08 02:37:49;;;;;;;2.97;1.40;;;10.90;48.20;;;;;;5036701;28;46424;-67
2023/08/08 02:40:15;;;;;;;2.53;1.47;;;11.00;48.20;;;;;;5035896;28;46445;-67
2023/08/08 02:42:41;;;;;;;7.50;1.90;;;11.10;47.90;;;;;;5039287;28;46333;-67
2023/08/08 02:45:07;;;;;;;2.90;1.80;;;11.10;47.90;;;;;;5039208;28;46769;-66
2023/08/08 02:47:32;;;;;;;3.60;1.70;;;11.20;47.90;;;;;;5040603;28;46289;-66
2023/08/08 02:49:58;;;;;;;2.70;1.50;;;11.20;47.70;;;;;;5043705;28;46431;-66
2023/08/08 02:52:24;;;;;;;3.43;1.70;;;11.30;47.60;;;;;;5042476;28;46561;-66
2023/08/08 02:54:49;;;;;;;9.80;1.83;;;11.40;47.60;;;;;;5038625;28;46475;-67
2023/08/08 02:57:15;;;;;;;4.10;1.70;;;11.40;47.50;;;;;;5041364;28;46383;-66
2023/08/08 02:59:41;;;;;;;5.10;1.30;;;11.50;47.60;;;;;;5039116;28;46428;-66
2023/08/08 03:02:07;;;;;;;6.13;1.37;;;11.50;47.60;;;;;;5035753;28;46548;-66
2023/08/08 03:04:32;;;;;;;2.67;1.40;;;11.60;47.50;;;;;;5040902;28;46731;-67
2023/08/08 03:06:58;;;;;;;2.97;1.33;;;11.60;47.30;;;;;;5038817;28;46458;-66
2023/08/08 03:09:24;;;;;;;5.73;1.33;;;11.70;47.20;;;;;;5043466;28;46453;-66
2023/08/08 03:11:49;;;;;;;3.00;1.50;;;11.70;47.00;;;;;;5042222;28;45865;-66
2023/08/08 03:14:15;;;;;;;4.87;1.50;;;11.80;46.90;;;;;;5035738;28;47163;-66
2023/08/08 03:16:41;;;;;;;4.20;1.40;;;11.80;46.60;;;;;;5039096;28;46384;-67
2023/08/08 03:19:06;;;;;;;3.00;1.40;;;11.90;46.40;;;;;;5041879;28;46388;-67
2023/08/08 03:21:32;;;;;;;3.30;1.20;;;11.90;46.20;;;;;;5039271;28;47209;-66
2023/08/08 03:23:58;;;;;;;3.00;1.30;;;12.00;46.00;;;;;;5041061;28;46671;-65
2023/08/08 03:26:23;;;;;;;3.40;1.70;;;12.00;45.90;;;;;;5037571;28;46581;-67
2023/08/08 03:28:50;;;;;;;5.33;1.50;;;12.00;45.90;;;;;;5041186;28;46343;-65
2023/08/08 03:31:17;;;;;;;3.40;1.47;;;12.00;45.80;;;;;;5041332;28;46468;-66
2023/08/08 03:33:43;;;;;;;2.57;1.33;;;12.00;45.70;;;;;;5039318;28;46790;-66
2023/08/08 03:36:08;;;;;;;2.80;1.47;;;12.00;45.60;;;;;;5037428;28;46536;-66
2023/08/08 03:38:35;;;;;;;5.03;1.57;;;12.00;45.70;;;;;;5030254;28;46403;-65
2023/08/08 03:41:01;;;;;;;3.20;1.40;;;12.10;45.90;;;;;;5039521;28;46609;-66
2023/08/08 03:43:26;;;;;;;3.47;1.50;;;12.00;45.70;;;;;;5036266;28;46814;-66
2023/08/08 03:45:52;;;;;;;3.53;1.53;;;12.00;45.70;;;;;;5035217;28;46430;-67
2023/08/08 03:48:17;;;;;;;5.73;1.50;;;12.00;45.70;;;;;;5035530;28;46784;-66
2023/08/08 03:50:43;;;;;;;2.20;1.30;;;12.00;45.50;;;;;;5039699;28;46503;-66
2023/08/08 03:53:09;;;;;;;4.07;1.83;;;12.00;45.50;;;;;;5041399;28;46983;-66
2023/08/08 03:55:34;;;;;;;3.10;1.40;;;12.10;45.60;;;;;;5045749;28;46300;-67
2023/08/08 03:58:00;;;;;;;7.83;2.27;;;12.10;45.50;;;;;;5039840;28;46638;-66
2023/08/08 04:00:25;;;;;;;4.00;1.40;;;12.10;45.40;;;;;;5038244;28;46529;-66
2023/08/08 04:02:51;;;;;;;3.17;1.57;;;12.10;45.30;;;;;;5041510;28;47042;-66
2023/08/08 04:05:17;;;;;;;3.00;1.50;;;12.10;45.20;;;;;;5036154;28;46496;-66
2023/08/08 04:07:42;;;;;;;7.13;1.20;;;12.10;45.10;;;;;;5042365;28;46633;-66
2023/08/08 04:10:08;;;;;;;3.23;1.50;;;12.20;46.30;;;;;;5035261;28;46567;-66
2023/08/08 04:12:33;;;;;;;2.43;1.23;;;12.10;45.00;;;;;;5046887;28;46269;-65
2023/08/08 04:14:59;;;;;;;4.07;1.50;;;12.10;45.00;;;;;;5039787;28;46397;-67
2023/08/08 04:17:25;;;;;;;2.80;1.40;;;12.20;45.20;;;;;;5040014;28;46669;-66
2023/08/08 04:19:50;;;;;;;3.70;1.87;;;12.10;45.00;;;;;;5040461;28;46680;-66
2023/08/08 04:22:16;;;;;;;4.30;1.50;;;12.20;45.10;;;;;;5043177;28;46470;-66
2023/08/08 04:24:42;;;;;;;3.37;1.60;;;12.20;45.10;;;;;;5043288;28;46398;-67
2023/08/08 04:27:07;;;;;;;3.20;1.40;;;12.30;44.90;;;;;;5046664;28;46699;-67
2023/08/08 04:29:33;;;;;;;3.03;1.40;;;12.30;44.80;;;;;;5036796;28;46395;-66
2023/08/08 04:31:59;;;;;;;2.93;1.47;;;12.30;44.70;;;;;;5041105;28;48032;-66
2023/08/08 04:34:24;;;;;;;3.07;1.20;;;12.40;44.60;;;;;;5034284;28;46476;-67
2023/08/08 04:36:50;;;;;;;3.57;1.50;;;12.40;44.40;;;;;;5038968;28;46425;-67
2023/08/08 04:39:16;;;;;;;2.60;1.30;;;12.50;44.30;;;;;;5043164;28;46672;-67
2023/08/08 04:41:41;;;;;;;2.97;1.30;;;12.50;44.30;;;;;;5037809;28;46494;-66
2023/08/08 04:44:07;;;;;;;2.87;1.37;;;12.50;44.20;;;;;;5040413;28;46714;-66
2023/08/08 04:46:32;;;;;;;14.30;1.73;;;12.50;44.20;;;;;;5039584;28;46550;-66
2023/08/08 04:48:58;;;;;;;5.50;1.60;;;12.60;44.20;;;;;;5037711;28;45954;-66
2023/08/08 04:51:24;;;;;;;5.97;2.50;;;12.60;43.90;;;;;;5033133;28;46446;-66
2023/08/08 04:53:49;;;;;;;29.60;18.10;;;12.60;43.90;;;;;;5040646;28;45847;-65
2023/08/08 04:56:15;;;;;;;7.70;4.93;;;12.70;43.80;;;;;;5039718;28;46324;-66
2023/08/08 04:58:40;;;;;;;12.70;8.37;;;12.80;43.60;;;;;;5039856;28;46390;-66
2023/08/08 05:01:08;;;;;;;16.37;9.87;;;12.90;43.30;;;;;;5042524;28;46397;-65
2023/08/08 05:03:34;;;;;;;8.33;4.60;;;13.10;43.30;;;;;;5043702;28;46096;-66
2023/08/08 05:06:00;;;;;;;9.47;3.83;;;13.30;42.70;;;;;;5032222;28;46725;-67
2023/08/08 05:08:26;;;;;;;9.53;3.60;;;13.50;42.20;;;;;;5035415;28;46016;-65
2023/08/08 05:10:51;;;;;;;8.40;4.20;;;14.20;42.20;;;;;;5042348;28;46475;-66
2023/08/08 05:13:17;;;;;;;6.60;3.00;;;14.60;41.70;;;;;;5038910;28;46470;-66
2023/08/08 05:15:42;;;;;;;5.67;2.83;;;14.90;40.90;;;;;;5032527;28;46320;-66
2023/08/08 05:18:08;;;;;;;3.33;1.50;;;14.80;40.50;;;;;;5038448;28;46501;-66
2023/08/08 05:20:34;;;;;;;3.07;1.60;;;14.70;40.50;;;;;;5041251;28;46712;-66
2023/08/08 05:22:59;;;;;;;6.83;1.40;;;14.60;40.40;;;;;;5039296;28;46433;-65
2023/08/08 05:25:25;;;;;;;4.13;1.40;;;14.50;40.50;;;;;;5036140;28;45965;-65
2023/08/08 05:27:51;;;;;;;3.67;1.60;;;14.40;40.40;;;;;;5044879;28;46328;-66
2023/08/08 05:30:16;;;;;;;3.07;1.53;;;14.40;40.40;;;;;;5040001;28;46563;-65
2023/08/08 05:32:42;;;;;;;3.83;1.90;;;14.30;40.00;;;;;;5045678;28;46943;-65
2023/08/08 05:35:08;;;;;;;5.90;2.60;;;14.40;39.80;;;;;;5042411;28;46469;-64
2023/08/08 05:37:33;;;;;;;9.67;4.40;;;14.30;39.50;;;;;;5044841;28;46632;-65
2023/08/08 05:39:59;;;;;;;3.23;1.60;;;14.40;39.40;;;;;;5042547;28;46992;-67
2023/08/08 05:42:25;;;;;;;3.63;1.27;;;14.50;39.30;;;;;;5035479;28;46371;-66
2023/08/08 05:44:51;;;;;;;4.63;1.37;;;14.40;39.20;;;;;;5036894;28;46348;-68
2023/08/08 05:47:16;;;;;;;3.13;1.33;;;15.50;37.60;;;;;;5042323;28;46340;-68
2023/08/08 05:49:42;;;;;;;3.83;1.70;;;15.50;37.50;;;;;;5037664;28;46684;-68
2023/08/08 05:52:08;;;;;;;10.33;5.70;;;15.50;37.30;;;;;;5037447;28;46408;-68
2023/08/08 05:54:34;;;;;;;8.73;4.67;;;17.10;34.10;;;;;;5039921;28;46465;-68
2023/08/08 05:57:00;;;;;;;3.43;1.57;;;18.80;30.10;;;;;;5041613;28;46478;-68
2023/08/08 05:59:25;;;;;;;5.83;1.60;;;19.70;27.30;;;;;;5034849;28;46359;-68
2023/08/08 06:01:51;;;;;;;4.23;1.43;;;20.10;25.90;;;;;;5036837;28;46484;-68
2023/08/08 06:04:17;;;;;;;3.70;1.70;;;20.20;25.60;;;;;;5038636;28;46361;-68
2023/08/08 06:06:43;;;;;;;7.57;1.50;;;20.30;25.40;;;;;;5035636;28;46295;-68
2023/08/08 06:09:09;;;;;;;3.30;1.33;;;20.40;25.00;;;;;;5047181;22;47182;-66
2023/08/08 06:11:36;;;;;;;3.70;1.50;;;20.50;24.50;;;;;;5035127;28;46512;-66
2023/08/08 06:14:02;;;;;;;4.43;1.40;;;20.80;23.00;;;;;;5034450;28;46651;-65
2023/08/08 06:16:33;;;;;;;3.10;1.30;;;21.10;22.50;;;;;;4994263;28;46610;-66
2023/08/08 06:19:00;;;;;;;4.90;1.70;;;21.30;21.80;;;;;;5035656;28;46695;-66
2023/08/08 06:21:26;;;;;;;4.90;2.00;;;21.70;20.70;;;;;;5035072;28;46396;-66
2023/08/08 06:23:54;;;;;;;4.20;1.40;;;21.90;19.70;;;;;;5032014;28;46553;-66
2023/08/08 06:26:26;;;;;;;3.30;1.50;;;22.30;18.70;;;;;;5020650;28;46497;-67
2023/08/08 06:28:52;;;;;;;4.27;1.40;;;22.60;17.70;;;;;;5029342;28;47027;-66
2023/08/08 06:31:22;;;;;;;3.50;1.50;;;22.80;16.70;;;;;;5033082;28;46688;-66
2023/08/08 06:33:51;;;;;;;3.00;1.20;;;22.20;19.40;;;;;;5038351;28;46219;-66
2023/08/08 06:36:18;;;;;;;3.20;1.40;;;21.80;19.70;;;;;;5037213;28;46382;-66
2023/08/08 06:38:43;;;;;;;3.00;1.47;;;21.60;20.10;;;;;;5013564;28;47187;-67
2023/08/08 06:41:09;;;;;;;3.00;1.50;;;21.60;20.10;;;;;;5036429;28;46514;-66
2023/08/08 06:43:35;;;;;;;5.27;1.53;;;22.80;16.20;;;;;;5035325;28;46815;-66
2023/08/08 06:46:01;;;;;;;4.53;1.30;;;23.90;13.00;;;;;;5037384;28;46396;-66
2023/08/08 06:48:27;;;;;;;3.03;1.30;;;24.50;10.60;;;;;;5037548;28;46405;-66
2023/08/08 06:50:52;;;;;;;4.10;1.57;;;24.40;9.80;;;;;;5040732;28;46425;-67
2023/08/08 06:53:18;;;;;;;3.17;1.60;;;23.70;10.90;;;;;;5033538;28;46670;-67
2023/08/08 06:55:44;;;;;;;4.70;1.47;;;23.20;11.50;;;;;;5037801;28;46482;-66
2023/08/08 06:58:09;;;;;;;4.10;1.40;;;23.30;10.90;;;;;;5037144;28;46370;-66
2023/08/08 07:00:35;;;;;;;2.97;1.27;;;22.90;11.50;;;;;;5033567;28;46697;-66
2023/08/08 07:03:00;;;;;;;8.37;1.63;;;22.90;11.00;;;;;;5035902;28;46541;-66
2023/08/08 07:05:26;;;;;;;3.00;1.40;;;23.50;9.10;;;;;;5033537;28;46468;-66
2023/08/08 07:07:52;;;;;;;6.30;1.47;;;23.20;8.70;;;;;;5038322;28;46446;-66
2023/08/08 07:10:19;;;;;;;3.37;1.30;;;22.30;10.60;;;;;;5036730;28;46884;-65
2023/08/08 07:12:44;;;;;;;3.23;1.43;;;20.90;12.90;;;;;;5039571;28;46516;-67
2023/08/08 07:15:10;;;;;;;5.30;1.40;;;20.00;15.50;;;;;;5037891;28;46642;-66
2023/08/08 07:17:36;;;;;;;3.90;1.40;;;19.60;16.80;;;;;;5039616;28;46390;-66
2023/08/08 07:20:02;;;;;;;4.77;1.37;;;19.30;17.50;;;;;;5038371;28;46437;-66
2023/08/08 07:22:28;;;;;;;4.10;1.43;;;19.10;17.70;;;;;;5036340;28;46496;-66
2023/08/08 07:24:53;;;;;;;3.10;1.40;;;18.80;18.10;;;;;;5034520;28;46375;-67
2023/08/08 07:27:19;;;;;;;3.10;1.20;;;18.90;18.50;;;;;;5038750;28;46981;-67
2023/08/08 07:29:45;;;;;;;5.03;1.53;;;19.00;18.40;;;;;;5036800;28;46799;-67
2023/08/08 07:32:10;;;;;;;3.70;1.37;;;19.00;18.40;;;;;;5034099;28;46424;-67
2023/08/08 07:34:36;;;;;;;3.30;1.50;;;18.90;18.60;;;;;;5038255;28;46465;-67
2023/08/08 07:37:02;;;;;;;3.27;1.37;;;19.00;18.50;;;;;;5042279;28;47081;-66
2023/08/08 07:39:28;;;;;;;3.60;1.60;;;18.80;18.10;;;;;;5040650;28;46437;-66
2023/08/08 07:41:54;;;;;;;5.73;1.63;;;18.60;18.50;;;;;;5036732;28;46457;-66
2023/08/08 07:44:20;;;;;;;3.23;1.20;;;18.60;18.80;;;;;;5039566;28;46796;-66
2023/08/08 07:46:45;;;;;;;3.43;1.67;;;18.90;20.00;;;;;;5040605;28;46409;-66
2023/08/08 07:49:11;;;;;;;3.13;1.33;;;19.20;18.80;;;;;;5040988;28;46331;-66
2023/08/08 07:51:36;;;;;;;3.67;1.33;;;19.20;18.30;;;;;;5037173;28;46407;-67
2023/08/08 07:54:02;;;;;;;2.87;1.20;;;19.10;18.00;;;;;;5036479;28;46144;-66
2023/08/08 07:56:28;;;;;;;3.20;1.50;;;19.20;18.30;;;;;;5036016;28;46593;-66
2023/08/08 07:58:53;;;;;;;6.03;1.77;;;19.40;18.20;;;;;;5038143;28;46462;-67
2023/08/08 08:01:19;;;;;;;3.70;1.50;;;19.70;17.80;;;;;;5038297;28;46391;-66
2023/08/08 08:03:45;;;;;;;3.20;1.23;;;19.70;17.10;;;;;;5035105;28;46456;-66
2023/08/08 08:06:11;;;;;;;3.33;1.37;;;19.70;17.20;;;;;;5037924;28;46986;-66
2023/08/08 08:08:37;;;;;;;2.60;1.27;;;19.80;17.30;;;;;;5033893;28;46596;-66
2023/08/08 08:11:03;;;;;;;5.20;1.53;;;19.90;17.20;;;;;;5036042;28;46417;-66
2023/08/08 08:13:29;;;;;;;7.30;2.27;;;20.00;17.10;;;;;;5035024;28;46516;-66
2023/08/08 08:15:54;;;;;;;5.30;1.50;;;20.00;17.20;;;;;;5036272;28;47227;-66
2023/08/08 08:18:20;;;;;;;3.50;1.40;;;20.20;17.00;;;;;;5035971;28;46445;-66
2023/08/08 08:20:47;;;;;;;2.60;1.30;;;20.00;16.90;;;;;;5035138;28;46427;-67
2023/08/08 08:23:12;;;;;;;6.20;1.60;;;20.20;16.80;;;;;;5038532;28;46745;-67
2023/08/08 08:25:38;;;;;;;3.97;1.70;;;20.50;16.60;;;;;;5039896;28;48017;-66
2023/08/08 08:28:04;;;;;;;4.73;1.60;;;20.60;16.40;;;;;;5038822;28;45726;-67
2023/08/08 08:30:30;;;;;;;5.83;1.63;;;20.60;16.70;;;;;;5036908;28;46709;-67
2023/08/08 08:32:56;;;;;;;3.83;1.70;;;20.60;16.50;;;;;;5034523;28;46292;-66
2023/08/08 08:35:22;;;;;;;4.10;1.60;;;20.60;15.70;;;;;;5035274;28;46878;-67
2023/08/08 08:37:48;;;;;;;4.83;1.30;;;20.50;15.70;;;;;;5033277;28;46481;-67
2023/08/08 08:40:14;;;;;;;4.73;1.30;;;20.50;15.70;;;;;;5030680;28;46440;-67
2023/08/08 08:42:40;;;;;;;3.60;1.40;;;20.20;15.20;;;;;;5037362;28;46515;-66
2023/08/08 08:45:08;;;;;;;3.13;1.60;;;20.40;15.80;;;;;;5036585;28;46425;-66
2023/08/08 08:47:36;;;;;;;3.57;1.30;;;20.50;15.40;;;;;;5033936;28;46422;-67
2023/08/08 08:50:03;;;;;;;3.73;1.90;;;20.50;15.50;;;;;;5035308;28;46521;-67
2023/08/08 08:52:29;;;;;;;3.50;1.63;;;20.40;15.30;;;;;;5036156;28;46729;-67
2023/08/08 08:54:55;;;;;;;4.30;1.47;;;20.40;14.80;;;;;;5038244;28;46931;-67
2023/08/08 08:57:24;;;;;;;3.30;1.40;;;20.60;15.20;;;;;;5040041;28;46457;-67
2023/08/08 08:59:50;;;;;;;4.97;1.50;;;20.90;16.00;;;;;;5035978;28;46677;-66
2023/08/08 09:02:17;;;;;;;5.73;1.40;;;21.20;14.40;;;;;;5033791;28;46565;-67
2023/08/08 09:04:45;;;;;;;6.53;1.47;;;21.40;13.80;;;;;;5035762;28;46459;-67
2023/08/08 09:07:11;;;;;;;4.70;1.60;;;21.00;12.50;;;;;;5034985;28;46368;-66
2023/08/08 09:09:37;;;;;;;3.57;1.67;;;20.80;13.50;;;;;;5036586;28;46442;-66
2023/08/08 09:12:05;;;;;;;4.10;1.50;;;20.90;13.60;;;;;;5035611;28;46384;-67
2023/08/08 09:14:30;;;;;;;3.90;1.50;;;20.90;13.80;;;;;;5041180;28;46473;-66
2023/08/08 09:16:57;;;;;;;8.43;1.73;;;21.30;13.60;;;;;;5033610;28;46474;-66
2023/08/08 09:19:24;;;;;;;3.03;1.23;;;21.50;12.40;;;;;;5030122;28;46488;-66
2023/08/08 09:21:51;;;;;;;3.47;1.50;;;21.40;12.30;;;;;;5030940;28;46256;-68
2023/08/08 09:24:17;;;;;;;5.40;1.60;;;21.60;12.10;;;;;;5035241;28;46367;-67
2023/08/08 09:26:44;;;;;;;4.47;1.50;;;21.80;12.30;;;;;;5023424;28;46644;-68
2023/08/08 09:29:14;;;;;;;3.33;1.50;;;22.20;11.60;;;;;;5032753;28;46432;-68
2023/08/08 09:31:40;;;;;;;3.07;1.37;;;22.70;10.50;;;;;;5035711;28;46466;-68
2023/08/08 09:34:06;;;;;;;3.40;1.40;;;22.70;10.40;;;;;;5033078;28;47274;-68
2023/08/08 09:36:31;;;;;;;6.13;1.20;;;23.00;9.90;;;;;;5035877;28;46335;-68
2023/08/08 09:38:57;;;;;;;4.77;1.50;;;23.10;9.30;;;;;;5028933;28;46871;-68
2023/08/08 09:41:23;;;;;;;4.17;1.40;;;23.40;9.00;;;;;;5028688;28;46432;-67
2023/08/08 09:43:51;;;;;;;2.80;1.37;;;23.20;8.30;;;;;;5033206;28;47272;-67
2023/08/08 09:46:18;;;;;;;4.20;1.40;;;22.90;8.40;;;;;;5034342;28;46501;-67
2023/08/08 09:48:44;;;;;;;3.50;1.43;;;22.90;8.50;;;;;;5030076;28;45917;-67
2023/08/08 09:51:10;;;;;;;4.23;1.60;;;23.00;8.40;;;;;;5033469;28;46489;-67
2023/08/08 09:53:36;;;;;;;4.77;1.60;;;22.90;8.00;;;;;;5033012;28;47091;-69
2023/08/08 09:56:04;;;;;;;5.90;1.70;;;23.10;8.30;;;;;;5030093;28;46551;-67
2023/08/08 09:58:30;;;;;;;5.97;1.70;;;23.40;7.90;;;;;;5028625;28;46402;-66
2023/08/08 10:00:55;;;;;;;5.60;1.33;;;23.50;7.70;;;;;;5027442;28;46969;-66
2023/08/08 10:03:22;;;;;;;8.00;1.30;;;23.80;7.50;;;;;;5033463;28;46680;-66
2023/08/08 10:05:47;;;;;;;4.63;1.70;;;23.90;7.00;;;;;;5029632;28;46797;-67
2023/08/08 10:08:17;;;;;;;4.63;1.90;;;24.10;7.00;;;;;;5034749;28;46740;-66
2023/08/08 10:10:45;;;;;;;5.47;1.50;;;23.80;6.90;;;;;;5029918;28;46422;-66
2023/08/08 10:13:19;;;;;;;5.00;1.40;;;23.70;7.60;;;;;;5031440;28;46378;-67
2023/08/08 10:15:45;;;;;;;4.10;1.40;;;23.40;7.30;;;;;;5035073;28;45829;-65
2023/08/08 10:18:13;;;;;;;3.70;1.40;;;22.80;7.60;;;;;;5033868;28;46596;-66
2023/08/08 10:20:43;;;;;;;3.57;1.57;;;22.30;8.30;;;;;;5038179;28;46489;-66
2023/08/08 10:23:08;;;;;;;2.90;1.40;;;22.50;8.80;;;;;;5036045;28;46543;-69
2023/08/08 10:25:35;;;;;;;4.17;1.27;;;22.80;8.50;;;;;;5031566;28;46466;-69
2023/08/08 10:28:06;;;;;;;3.70;1.53;;;22.90;8.50;;;;;;5029892;28;46462;-69
2023/08/08 10:30:58;;;;;;;3.10;1.50;;;22.70;7.70;;;;;;5035991;28;46415;-69
2023/08/08 10:33:29;;;;;;;4.63;1.30;;;22.50;8.10;;;;;;5040138;28;46430;-69
2023/08/08 10:36:00;;;;;;;3.23;1.40;;;22.80;7.70;;;;;;5033727;28;46412;-68
2023/08/08 10:38:27;;;;;;;4.17;1.60;;;23.30;7.10;;;;;;5039021;28;46779;-69
2023/08/08 10:40:59;;;;;;;4.20;1.47;;;23.80;6.30;;;;;;5034550;28;45916;-70
2023/08/08 10:43:27;;;;;;;3.87;1.53;;;24.30;5.60;;;;;;5034968;28;46652;-71
2023/08/08 10:45:53;;;;;;;3.27;1.47;;;24.60;5.20;;;;;;5035157;28;46478;-70
2023/08/08 10:48:20;;;;;;;2.97;1.40;;;24.50;4.70;;;;;;5039022;28;46413;-71
2023/08/08 10:50:46;;;;;;;5.17;1.60;;;24.40;5.30;;;;;;5037619;28;46548;-71
2023/08/08 10:53:12;;;;;;;3.10;1.70;;;24.60;4.40;;;;;;5037229;28;47473;-70
2023/08/08 10:55:38;;;;;;;5.03;1.63;;;24.20;4.30;;;;;;5036979;28;46473;-66
2023/08/08 10:58:22;;;;;;;4.93;1.60;;;23.80;4.30;;;;;;5040415;28;46630;-65
2023/08/08 11:00:48;;;;;;;3.17;1.50;;;23.50;4.50;;;;;;5042239;28;46478;-66
2023/08/08 11:03:15;;;;;;;6.03;1.57;;;23.20;4.80;;;;;;5036488;28;46663;-66
2023/08/08 11:05:44;;;;;;;3.40;1.50;;;23.00;4.40;;;;;;5037181;28;45906;-66
2023/08/08 11:08:10;;;;;;;5.17;1.60;;;22.90;4.80;;;;;;5039093;28;46454;-68
2023/08/08 11:10:39;;;;;;;3.60;1.57;;;22.70;5.00;;;;;;5034434;28;46648;-68
2023/08/08 11:13:06;;;;;;;3.23;1.60;;;22.90;5.50;;;;;;5033930;28;47940;-68
2023/08/08 11:15:33;;;;;;;8.10;1.67;;;23.30;5.90;;;;;;5035475;28;46431;-68
2023/08/08 11:18:00;;;;;;;4.97;1.40;;;23.60;5.60;;;;;;5037914;28;46627;-68
2023/08/08 11:20:33;;;;;;;5.67;1.77;;;23.80;5.50;;;;;;5036966;28;46489;-68
2023/08/08 11:22:59;;;;;;;5.43;1.63;;;23.80;5.30;;;;;;5035032;28;46486;-68
2023/08/08 11:25:27;;;;;;;3.53;1.43;;;23.80;5.30;;;;;;5037713;28;46391;-67
2023/08/08 11:27:53;;;;;;;2.73;1.20;;;23.40;3.40;;;;;;5030956;28;46917;-67
2023/08/08 11:30:20;;;;;;;4.00;1.37;;;22.80;4.70;;;;;;5033499;28;46474;-67
2023/08/08 11:32:47;;;;;;;3.53;1.30;;;22.70;4.80;;;;;;5031384;28;47290;-67
2023/08/08 11:35:21;;;;;;;3.83;1.40;;;22.40;5.20;;;;;;5037626;28;46469;-67
2023/08/08 11:37:48;;;;;;;3.47;1.30;;;22.20;4.00;;;;;;5035482;28;46415;-68
2023/08/08 11:40:15;;;;;;;6.27;1.50;;;22.10;4.20;;;;;;5042840;28;46453;-66
2023/08/08 11:42:41;;;;;;;4.10;1.50;;;21.90;4.40;;;;;;5040731;28;46081;-69
2023/08/08 11:45:10;;;;;;;6.03;1.93;;;21.60;5.10;;;;;;5033644;28;46865;-67
2023/08/08 11:47:38;;;;;;;3.87;1.40;;;21.60;5.50;;;;;;5037338;28;46688;-67
2023/08/08 11:50:09;;;;;;;3.83;1.63;;;21.70;5.80;;;;;;5036506;28;46385;-67
2023/08/08 11:52:39;;;;;;;3.67;1.40;;;21.80;5.80;;;;;;5034526;28;47228;-67
2023/08/08 11:55:06;;;;;;;3.50;1.40;;;22.20;6.10;;;;;;5031803;28;46471;-70
2023/08/08 11:57:33;;;;;;;3.60;1.70;;;22.60;5.50;;;;;;5033069;28;46487;-68
2023/08/08 11:59:59;;;;;;;3.37;1.40;;;22.80;5.00;;;;;;5031205;28;46602;-71
2023/08/08 12:02:27;;;;;;;3.17;1.20;;;23.10;4.90;;;;;;5034190;28;47201;-70
2023/08/08 12:04:52;;;;;;;6.47;1.90;;;23.20;4.50;;;;;;5030900;28;46614;-71
2023/08/08 12:07:19;;;;;;;3.33;1.60;;;23.10;4.70;;;;;;5036603;28;46353;-71
2023/08/08 12:09:47;;;;;;;2.73;1.30;;;23.40;4.40;;;;;;5034906;28;46355;-71
2023/08/08 12:12:13;;;;;;;3.83;1.70;;;23.70;4.00;;;;;;5033925;28;46290;-67
2023/08/08 12:14:41;;;;;;;3.30;1.37;;;23.60;3.90;;;;;;5036039;28;46438;-69
2023/08/08 12:17:08;;;;;;;3.40;1.47;;;23.60;3.90;;;;;;5034659;28;46502;-70
2023/08/08 12:19:34;;;;;;;2.80;1.27;;;23.70;3.90;;;;;;5037500;28;46467;-70
2023/08/08 12:22:00;;;;;;;4.13;1.40;;;23.50;3.50;;;;;;5034521;28;46447;-70
2023/08/08 12:24:25;;;;;;;2.90;1.40;;;23.30;3.70;;;;;;5030494;28;46490;-72
2023/08/08 12:26:51;;;;;;;3.90;1.90;;;23.10;4.30;;;;;;5036294;28;46492;-72
2023/08/08 12:29:17;;;;;;;3.37;1.50;;;23.20;4.30;;;;;;5033765;28;47060;-69
2023/08/08 12:31:43;;;;;;;5.03;1.73;;;23.30;4.20;;;;;;5033773;28;47162;-66
2023/08/08 12:34:09;;;;;;;4.13;1.77;;;23.20;5.80;;;;;;5029556;28;46500;-66
2023/08/08 12:36:35;;;;;;;4.07;1.73;;;23.40;4.80;;;;;;5035600;28;46439;-66
2023/08/08 12:39:01;;;;;;;2.60;1.10;;;23.70;4.50;;;;;;5033287;28;45873;-66
2023/08/08 12:41:29;;;;;;;3.07;1.30;;;23.80;4.50;;;;;;5034006;28;46457;-64
2023/08/08 12:43:55;;;;;;;3.10;1.43;;;24.00;4.30;;;;;;5032200;28;46554;-65
2023/08/08 12:46:21;;;;;;;4.73;1.47;;;24.10;3.60;;;;;;5032359;28;46782;-64